Decoded Metar for KDVP (SLAYTON in MN, USA) (IATA:DVP) | Meteo·Mobile Aviation Weather
aviador You're here:

KDVP Decoded Metar

SLAYTON in MN, USA
Report Time2018-12-14 07:59:00
UTC Time2018-12-14 08:48:13
Flight Rules vfr VFR
Wind250° at 11 kt
W.Decomp.*RWY 17: 2.7 kt HW 10.7 kt RCW
W.Rank250° ranks 22
Current wind is above 250° avg. (9.5)
Visibility9999 m
Phenomena:N/A
Clouds:N/A
Expected CloudBase > 2,800 ft AGL from Temp-Dew spread
CeilingNone
Temp00°C (ISA -12)
Dew Point-7°C (60% RH)
AAT-6.8°C
QNH1022 hPa
Density Alt-59 ft
Elevation1,624 ft
Report Wrong Elevation
Raw Report
KDVP 140759Z AUTO 25011KT 10SM CLR 00/M07 A3017 RMK AO2=

Extra information for KDVP:More info

Metar Taf Metar & Taf Last 4 Metars F.Rules Stats Wind Profile Meteogram Temp Stats Airport Information Weather charts Add Link Nearby VenuesMetar ALERT Operation Metar Decoded Social comments

AIRNAV info for KDVP